North Amity, Maine
Current Conditions -  °F | °C
As of 10:53 PM on Tuesday 21 Oct 2014 (Local Time) from KHUL Reporting Station
Overcast Overcast  
Wind Chill: 39°   Ceiling: 3600
Heat Index: 42°   Visibility: 10mi
Dew Point: 34°   Wind: 5mph
Humidity: 73%   Direction: 40°NE
Pressure: 30.24"   Gusts: NA
Location:  45.8952°N, 67.8479°W
Report Text: KHUL 220253Z AUTO 04004KT 10SM OVC036 06/01 A3024 RMK AO2 SLP244 T00560011 51018
Loading
Personal Weather Stations






























Interactive Weather Map
Tropical Storm Tracking
New forecast layout! Learn more

10-Day Weather Forecast

Advertisements
Track Severe Weather on mobile